Weather at Elk City Airport

Public forecast

Using degrees Fahrenheit for public forecast. Weather courtesy of forecast.io.

Closest aviation weather report (METAR) to Elk City Airport

Closest report is McCall Municipal Airport, 62.5 nm (115.8 km) SSW.

2024/07/24 14:51 (retrieved 31 minutes ago)

KMYL 241451Z AUTO 00000KT 6SM HZ CLR 17/11 A3022 RMK AO2 SLP182 T01720106 51007

Closest aviation forecast (TAF) to Elk City Airport

Closest forecast is McCall Municipal Airport, 62.5 nm (115.8 km) SSW.

2024/07/24 12:30 (retrieved 3 hours ago)

TAF KMYL 241127Z 2412/2512 VRB03KT P6SM FEW120 FM241900 21012G22KT P6SM SCT070 BKN100 FM250100 21010G18KT P6SM VCTS SCT070CB BKN100 PROB30 2501/2504 VRB20G40KT 4SM TSRAGR BKN070CB FM250500 VRB04KT P6SM FEW100